KOSC

Details ICAO KOSC (OSC)
Name OSCODA WURTSMITH
Region United States
Timezone America/Detroit (UTC-5.0)
Plans Departing 6
Arriving 10
Stats Elevation 634 ft / 193 m (AMSL)
Location 44.451557° -83.394054°
Runways 1
Magnetic Variation 7.766° W
Sunrise 2017-12-12 13:02:16 UTC / 2017-12-12 08:02:16 Local
Sunset 2017-12-12 21:55:26 UTC / 2017-12-12 16:55:26 Local
Advertisement - Login to hide

Runways

ID Width Length Bearing (true) Bearing (mag) Surface Threshold Offset Overrun Length
06 200 ft / 61 m 11,781 ft / 3,591 m 58.13° 65.90° Asphalt 0 ft / 0 m 1,000 ft / 305 m
24 200 ft / 61 m 11,781 ft / 3,591 m 238.15° 245.92° Asphalt 0 ft / 0 m 1,000 ft / 305 m

Approach Navaids

Runway Type Ident Frequency Range Bearing (true) Bearing (mag) Slope Elevation
24 Localiser ILJU 108.50 MHz 18 nm / 33 km 238.10° 245.86° - 634 ft / 193 m (AMSL)
24 Glidescope ILJU 108.50 MHz 10 nm / 19 km 238.14° 245.91° 2.60° 634 ft / 193 m (AMSL)

Map

Weather


0- 5 10 15 20 25 30 35+ Temperature / ° C

Clouds and Precipitation
Forecast for 2017-12-13 00:00 UTC. Updated an hour ago

Ground ~20,000 ft ~40,000 ft Winds

METAR

KOSC 122215Z AUTO 31011G24KT 10SM CLR M12/M20 A2983 RMK AO2 T11171197

TAF

Not found

Frequencies

Unicom 123.00 MHz CTAF/UNICOM
Warning: Do not use this data for real-world aviation or navigation. No guarantee of current accuracy is given.